Time;durP1;ratioP1;P1;durP2;ratioP2;P2;SDS_P1;SDS_P2;PMS_P1;PMS_P2;Temp;Humidity;BMP_temperature;BMP_pressure;BME280_temperature;BME280_humidity;BME280_pressure;Samples;Min_cycle;Max_cycle;Signal;HPM_P1;HPM_P2
2023/11/30 00:02:15;;;;;;;8.38;6.35;;;2.50;80.40;;;;;;5007634;28;20485;-63
2023/11/30 00:04:40;;;;;;;7.70;6.30;;;2.50;80.40;;;;;;5007150;28;20350;-62
2023/11/30 00:07:10;;;;;;;8.98;6.07;;;2.40;80.40;;;;;;5008041;28;20414;-61
2023/11/30 00:09:36;;;;;;;8.65;6.57;;;2.40;80.70;;;;;;5007246;28;20026;-62
2023/11/30 00:12:03;;;;;;;9.00;6.55;;;2.30;80.80;;;;;;5005369;28;20485;-62
2023/11/30 00:14:29;;;;;;;8.77;6.78;;;2.30;80.90;;;;;;5006556;28;20037;-62
2023/11/30 00:16:54;;;;;;;10.20;6.95;;;2.30;81.00;;;;;;5007837;28;20026;-62
2023/11/30 00:19:20;;;;;;;10.98;6.88;;;2.30;81.00;;;;;;5006459;28;20021;-62
2023/11/30 00:21:45;;;;;;;9.02;6.70;;;2.30;81.00;;;;;;5007196;28;20409;-62
2023/11/30 00:24:11;;;;;;;9.23;6.82;;;2.30;81.00;;;;;;5007212;28;20049;-61
2023/11/30 00:26:36;;;;;;;10.63;7.25;;;2.30;81.10;;;;;;5005819;28;20036;-60
2023/11/30 00:29:02;;;;;;;10.63;7.63;;;2.30;81.20;;;;;;5005867;28;20034;-61
2023/11/30 00:31:28;;;;;;;12.98;8.15;;;2.30;81.30;;;;;;5006701;28;20034;-61
2023/11/30 00:33:53;;;;;;;9.48;7.32;;;2.30;81.30;;;;;;4988625;28;20022;-61
2023/11/30 00:36:19;;;;;;;10.13;7.13;;;2.30;81.30;;;;;;5007014;28;20129;-62
2023/11/30 00:38:44;;;;;;;9.00;7.20;;;2.30;81.30;;;;;;5005520;28;20151;-62
2023/11/30 00:41:14;;;;;;;12.70;8.50;;;2.30;81.30;;;;;;5006339;28;20038;-62
2023/11/30 00:43:39;;;;;;;12.18;7.97;;;2.30;81.30;;;;;;5006110;28;20095;-62
2023/11/30 00:46:05;;;;;;;12.13;7.82;;;2.30;81.30;;;;;;5006452;28;20037;-62
2023/11/30 00:48:31;;;;;;;10.40;7.30;;;2.30;81.30;;;;;;5005087;28;20033;-62
2023/11/30 00:50:56;;;;;;;10.73;7.18;;;2.30;81.30;;;;;;5005879;28;20053;-62
2023/11/30 00:53:22;;;;;;;9.77;7.13;;;2.30;81.40;;;;;;5006460;28;20578;-62
2023/11/30 00:55:47;;;;;;;9.27;6.75;;;2.30;81.40;;;;;;5005943;28;20038;-62
2023/11/30 00:58:13;;;;;;;10.57;7.28;;;2.30;81.50;;;;;;5005812;28;20114;-62
2023/11/30 01:00:38;;;;;;;13.38;8.00;;;2.30;81.60;;;;;;5006257;28;20402;-63
2023/11/30 01:03:04;;;;;;;10.70;7.43;;;2.30;81.60;;;;;;5007194;28;20391;-61
2023/11/30 01:05:29;;;;;;;11.57;7.68;;;2.30;81.60;;;;;;5006452;28;20034;-62
2023/11/30 01:07:55;;;;;;;10.82;7.72;;;2.30;81.60;;;;;;5006083;28;20038;-61
2023/11/30 01:10:21;;;;;;;13.65;7.97;;;2.30;81.60;;;;;;5005610;28;20041;-61
2023/11/30 01:12:46;;;;;;;10.82;7.25;;;2.30;81.60;;;;;;5004593;28;20030;-60
2023/11/30 01:15:12;;;;;;;12.20;7.85;;;2.30;81.60;;;;;;5005993;28;20037;-63
2023/11/30 01:17:38;;;;;;;11.43;7.50;;;2.30;81.80;;;;;;5006335;28;20034;-62
2023/11/30 01:20:04;;;;;;;10.30;7.25;;;2.30;81.90;;;;;;5006391;28;20038;-62
2023/11/30 01:22:29;;;;;;;10.88;7.68;;;2.30;81.80;;;;;;5005319;28;20042;-62
2023/11/30 01:24:55;;;;;;;11.25;8.00;;;2.30;81.80;;;;;;5006043;28;20524;-63
2023/11/30 01:27:20;;;;;;;12.43;8.13;;;2.30;81.90;;;;;;5004241;28;20699;-62
2023/11/30 01:29:46;;;;;;;12.48;8.05;;;2.30;81.80;;;;;;5005294;28;20109;-63
2023/11/30 01:32:11;;;;;;;15.00;9.18;;;2.30;81.80;;;;;;5005975;28;20050;-63
2023/11/30 01:34:38;;;;;;;12.68;7.97;;;2.30;81.90;;;;;;5005428;28;20124;-62
2023/11/30 01:37:03;;;;;;;11.68;8.32;;;2.30;82.00;;;;;;5006136;28;20092;-62
2023/11/30 01:39:29;;;;;;;13.10;8.43;;;2.30;82.00;;;;;;5005270;28;20030;-63
2023/11/30 01:41:55;;;;;;;13.35;8.35;;;2.30;82.10;;;;;;5006227;28;20506;-62
2023/11/30 01:44:20;;;;;;;11.68;7.78;;;2.30;82.10;;;;;;5004757;28;20080;-62
2023/11/30 01:46:46;;;;;;;12.93;8.40;;;2.30;82.20;;;;;;5004863;28;20036;-62
2023/11/30 01:49:11;;;;;;;11.55;7.95;;;2.30;82.30;;;;;;5005319;28;20037;-63
2023/11/30 01:51:38;;;;;;;13.27;8.63;;;2.30;82.30;;;;;;5005544;28;20041;-62
2023/11/30 01:54:04;;;;;;;12.73;8.32;;;2.30;82.40;;;;;;5005126;28;20515;-62
2023/11/30 01:56:32;;;;;;;12.77;8.55;;;2.30;82.40;;;;;;5003377;28;20457;-62
2023/11/30 01:58:58;;;;;;;12.25;8.40;;;2.30;82.40;;;;;;5004475;28;21156;-61
2023/11/30 02:01:27;;;;;;;13.70;8.32;;;2.30;82.50;;;;;;5007020;28;20134;-61
2023/11/30 02:03:53;;;;;;;12.75;8.15;;;2.30;82.50;;;;;;5003179;28;20083;-62
2023/11/30 02:06:19;;;;;;;11.70;7.82;;;2.30;82.60;;;;;;5005451;28;20457;-61
2023/11/30 02:08:45;;;;;;;13.35;8.07;;;2.30;82.60;;;;;;5005086;28;20026;-61
2023/11/30 02:11:12;;;;;;;12.95;8.27;;;2.30;82.70;;;;;;5002291;28;20030;-62
2023/11/30 02:13:38;;;;;;;11.75;8.32;;;2.40;82.80;;;;;;5005432;28;20050;-63
2023/11/30 02:16:04;;;;;;;12.88;8.02;;;2.30;82.70;;;;;;5005191;28;20034;-63
2023/11/30 02:18:30;;;;;;;15.20;8.43;;;2.30;82.70;;;;;;5004401;28;20205;-62
2023/11/30 02:20:55;;;;;;;11.38;8.02;;;2.30;82.70;;;;;;5004985;28;20546;-62
2023/11/30 02:23:21;;;;;;;12.27;8.00;;;2.40;82.80;;;;;;5005300;28;20100;-62
2023/11/30 02:25:47;;;;;;;11.68;8.00;;;2.40;82.90;;;;;;5005290;28;20064;-62
2023/11/30 02:28:16;;;;;;;12.57;8.38;;;2.40;83.00;;;;;;5003712;28;20104;-62
2023/11/30 02:30:43;;;;;;;10.70;7.18;;;2.40;83.10;;;;;;5004568;28;20430;-61
2023/11/30 02:33:09;;;;;;;12.38;8.00;;;2.40;83.00;;;;;;5005136;28;20046;-62
2023/11/30 02:35:35;;;;;;;12.57;8.32;;;2.40;83.00;;;;;;5004717;28;20592;-62
2023/11/30 02:38:00;;;;;;;12.73;8.45;;;2.40;83.00;;;;;;5004593;28;20097;-62
2023/11/30 02:40:26;;;;;;;13.15;8.38;;;2.40;83.10;;;;;;5004255;28;20023;-63
2023/11/30 02:42:51;;;;;;;14.57;8.70;;;2.50;83.20;;;;;;5005204;28;20089;-60
2023/11/30 02:45:17;;;;;;;16.10;9.63;;;2.50;83.10;;;;;;5004568;28;20037;-63
2023/11/30 02:47:42;;;;;;;15.63;9.32;;;2.50;83.10;;;;;;5004738;28;20256;-61
2023/11/30 02:50:08;;;;;;;12.45;8.13;;;2.50;83.20;;;;;;5005436;28;20401;-62
2023/11/30 02:52:34;;;;;;;14.52;8.02;;;2.50;83.20;;;;;;5004595;28;20468;-63
2023/11/30 02:54:59;;;;;;;11.82;7.45;;;2.50;83.20;;;;;;4986913;28;20033;-62
2023/11/30 02:57:25;;;;;;;10.57;7.28;;;2.50;83.20;;;;;;5004896;28;20038;-63
2023/11/30 02:59:50;;;;;;;11.77;7.22;;;2.50;83.30;;;;;;5004216;28;20065;-62
2023/11/30 03:02:16;;;;;;;10.70;6.45;;;2.50;83.30;;;;;;5003997;28;20033;-62
2023/11/30 03:04:41;;;;;;;11.05;7.00;;;2.60;83.30;;;;;;5004222;28;20057;-63
2023/11/30 03:07:07;;;;;;;8.88;6.13;;;2.50;83.20;;;;;;5007124;28;20460;-61
2023/11/30 03:09:33;;;;;;;11.60;6.90;;;2.60;83.30;;;;;;5008023;28;20096;-62
2023/11/30 03:11:59;;;;;;;9.30;6.65;;;2.60;83.30;;;;;;5006868;28;20037;-62
2023/11/30 03:14:24;;;;;;;7.80;6.22;;;2.60;83.10;;;;;;5007984;28;20030;-60
2023/11/30 03:16:50;;;;;;;9.23;6.93;;;2.60;83.10;;;;;;5008485;28;20034;-62
2023/11/30 03:19:15;;;;;;;13.02;7.95;;;2.60;83.10;;;;;;5007584;28;20124;-62
2023/11/30 03:21:41;;;;;;;11.02;6.95;;;2.60;83.00;;;;;;5008389;28;20277;-63
2023/11/30 03:24:08;;;;;;;11.38;7.63;;;2.70;83.00;;;;;;5008512;28;20093;-63
2023/11/30 03:26:33;;;;;;;11.32;7.22;;;2.70;83.00;;;;;;5006948;28;20094;-62
2023/11/30 03:28:59;;;;;;;11.15;7.07;;;2.60;82.80;;;;;;5006784;28;20486;-63
2023/11/30 03:31:24;;;;;;;11.65;7.60;;;2.60;82.80;;;;;;5008144;28;20053;-63
2023/11/30 03:33:50;;;;;;;11.23;6.93;;;2.60;82.80;;;;;;5008077;28;20081;-63
2023/11/30 03:36:16;;;;;;;9.52;6.95;;;2.60;82.90;;;;;;5008400;28;20041;-63
2023/11/30 03:38:41;;;;;;;12.65;7.80;;;2.50;82.90;;;;;;5007694;28;20044;-63
2023/11/30 03:41:07;;;;;;;10.02;7.00;;;2.50;83.10;;;;;;5008959;28;20065;-62
2023/11/30 03:43:33;;;;;;;10.38;7.38;;;2.40;83.20;;;;;;5008375;28;20022;-62
2023/11/30 03:45:58;;;;;;;10.85;7.65;;;2.40;83.40;;;;;;5008749;28;20122;-62
2023/11/30 03:48:24;;;;;;;10.35;7.05;;;2.40;83.50;;;;;;5007610;28;20112;-62
2023/11/30 03:50:49;;;;;;;9.77;6.78;;;2.30;83.70;;;;;;5008314;28;20044;-63
2023/11/30 03:53:15;;;;;;;9.10;6.05;;;2.30;83.70;;;;;;5008368;28;20121;-63
2023/11/30 03:55:40;;;;;;;9.25;6.30;;;2.30;83.90;;;;;;5008166;28;20065;-62
2023/11/30 03:58:06;;;;;;;8.70;6.18;;;2.30;84.10;;;;;;5007264;28;20478;-63
2023/11/30 04:00:31;;;;;;;9.25;6.53;;;2.30;84.20;;;;;;5007298;28;20038;-62
2023/11/30 04:02:57;;;;;;;8.73;6.20;;;2.40;84.30;;;;;;5008676;28;20026;-63
2023/11/30 04:05:22;;;;;;;9.60;6.28;;;2.40;84.20;;;;;;5007632;28;20468;-61
2023/11/30 04:07:48;;;;;;;9.55;6.50;;;2.40;84.20;;;;;;5008075;28;20030;-62
2023/11/30 04:10:13;;;;;;;9.45;6.68;;;2.50;85.10;;;;;;5007007;28;20508;-61
2023/11/30 04:12:40;;;;;;;9.98;6.65;;;2.50;84.30;;;;;;5006573;28;20030;-62
2023/11/30 04:15:06;;;;;;;9.52;6.88;;;2.50;84.40;;;;;;5007108;28;20077;-62
2023/11/30 04:17:31;;;;;;;11.27;7.72;;;2.50;84.40;;;;;;5006742;28;20065;-63
2023/11/30 04:19:57;;;;;;;12.98;8.48;;;2.50;84.30;;;;;;5006538;28;20042;-63
2023/11/30 04:22:23;;;;;;;12.63;8.57;;;2.60;84.20;;;;;;5006936;28;20037;-62
2023/11/30 04:24:48;;;;;;;10.68;7.63;;;2.60;84.10;;;;;;5006886;28;20100;-61
2023/11/30 04:27:14;;;;;;;11.52;7.30;;;2.60;83.90;;;;;;5005312;28;20052;-62
2023/11/30 04:29:40;;;;;;;9.95;6.95;;;2.60;83.90;;;;;;5006665;28;20049;-62
2023/11/30 04:32:06;;;;;;;10.23;6.65;;;2.50;83.90;;;;;;5007265;28;20573;-61
2023/11/30 04:34:31;;;;;;;9.38;6.53;;;2.50;84.00;;;;;;5005922;28;20108;-62
2023/11/30 04:36:57;;;;;;;11.50;7.18;;;2.50;84.20;;;;;;5006193;28;20081;-62
2023/11/30 04:39:23;;;;;;;9.20;6.82;;;2.50;84.40;;;;;;5006599;28;20499;-62
2023/11/30 04:41:50;;;;;;;10.90;6.95;;;2.60;84.50;;;;;;5007259;28;20048;-62
2023/11/30 04:44:16;;;;;;;9.55;6.80;;;2.60;84.40;;;;;;5007305;28;20038;-62
2023/11/30 04:46:41;;;;;;;9.85;6.72;;;2.60;84.50;;;;;;5006751;28;20528;-62
2023/11/30 04:49:07;;;;;;;10.75;6.75;;;2.60;84.50;;;;;;5007040;28;20145;-63
2023/11/30 04:51:32;;;;;;;19.73;11.30;;;2.60;84.40;;;;;;5006953;28;20042;-63
2023/11/30 04:53:58;;;;;;;27.35;13.93;;;2.70;84.40;;;;;;5006484;28;20530;-61
2023/11/30 04:56:24;;;;;;;18.30;10.65;;;2.70;84.40;;;;;;5006184;28;20560;-62
2023/11/30 04:58:49;;;;;;;13.52;8.82;;;2.70;84.20;;;;;;5006424;28;20030;-62
2023/11/30 05:01:15;;;;;;;11.20;7.65;;;2.70;84.10;;;;;;5007005;28;20057;-62
2023/11/30 05:03:40;;;;;;;11.35;7.60;;;2.70;84.00;;;;;;5007030;28;20421;-61
2023/11/30 05:06:07;;;;;;;13.20;7.63;;;2.70;84.00;;;;;;5007416;28;20038;-62
2023/11/30 05:08:33;;;;;;;12.55;7.97;;;2.70;84.10;;;;;;5005835;28;20030;-62
2023/11/30 05:10:59;;;;;;;11.52;7.57;;;2.70;84.10;;;;;;5004046;28;20042;-62
2023/11/30 05:13:25;;;;;;;10.75;6.70;;;2.70;84.20;;;;;;5006005;28;20042;-62
2023/11/30 05:15:50;;;;;;;11.73;7.53;;;2.70;84.20;;;;;;5006381;28;20030;-63
2023/11/30 05:18:16;;;;;;;11.88;7.63;;;2.70;84.30;;;;;;5005571;28;20018;-61
2023/11/30 05:20:41;;;;;;;12.88;8.27;;;2.70;84.10;;;;;;5006011;28;20232;-61
2023/11/30 05:23:07;;;;;;;11.00;7.45;;;2.70;84.30;;;;;;5006101;28;20409;-62
2023/11/30 05:25:33;;;;;;;9.68;6.97;;;2.70;84.40;;;;;;5005297;28;20038;-62
2023/11/30 05:27:59;;;;;;;14.05;7.30;;;2.70;84.40;;;;;;5004255;28;20034;-62
2023/11/30 05:30:27;;;;;;;12.32;6.70;;;2.70;84.60;;;;;;5003776;28;20030;-62
2023/11/30 05:32:52;;;;;;;12.98;7.32;;;2.70;84.60;;;;;;5006226;28;20396;-61
2023/11/30 05:35:18;;;;;;;13.15;7.82;;;2.70;84.50;;;;;;5006261;28;20053;-62
2023/11/30 05:37:44;;;;;;;12.05;7.38;;;2.70;84.50;;;;;;5006407;28;20029;-62
2023/11/30 05:40:11;;;;;;;11.82;7.35;;;2.80;84.60;;;;;;5006080;28;20212;-62
2023/11/30 05:42:37;;;;;;;10.27;6.57;;;2.80;84.60;;;;;;5005478;28;20397;-62
2023/11/30 05:45:03;;;;;;;9.25;6.22;;;2.80;84.50;;;;;;5006380;28;20034;-62
2023/11/30 05:47:28;;;;;;;10.65;6.43;;;2.80;84.60;;;;;;5005434;28;20290;-63
2023/11/30 05:49:54;;;;;;;9.25;5.93;;;2.80;84.60;;;;;;5006291;28;20037;-62
2023/11/30 05:52:20;;;;;;;8.38;5.45;;;2.80;84.70;;;;;;5005749;28;20293;-62
2023/11/30 05:54:46;;;;;;;10.05;5.75;;;2.80;85.50;;;;;;5005088;28;20058;-62
2023/11/30 05:57:11;;;;;;;7.57;4.95;;;2.80;84.50;;;;;;5006446;28;20249;-61
2023/11/30 05:59:37;;;;;;;7.15;5.50;;;2.80;84.50;;;;;;5004948;28;20351;-61
2023/11/30 06:02:04;;;;;;;8.55;5.80;;;2.80;84.60;;;;;;5005883;28;20065;-61
2023/11/30 06:04:33;;;;;;;9.93;6.35;;;2.80;84.70;;;;;;5004793;28;20030;-62
2023/11/30 06:07:00;;;;;;;9.40;5.97;;;2.80;84.80;;;;;;4988401;28;20022;-62
2023/11/30 06:09:25;;;;;;;10.43;6.60;;;2.80;84.80;;;;;;5005611;28;20125;-62
2023/11/30 06:11:52;;;;;;;11.35;6.78;;;2.80;84.90;;;;;;5004397;28;20112;-60
2023/11/30 06:14:18;;;;;;;8.85;6.40;;;2.90;84.90;;;;;;5005974;28;20030;-62
2023/11/30 06:16:44;;;;;;;10.95;6.63;;;2.90;84.90;;;;;;5004871;28;20514;-63
2023/11/30 06:19:09;;;;;;;10.30;6.88;;;2.90;84.90;;;;;;5006068;28;20064;-62
2023/11/30 06:21:38;;;;;;;11.23;6.97;;;3.00;85.00;;;;;;5005783;28;20081;-62
2023/11/30 06:24:03;;;;;;;9.85;6.43;;;3.00;85.80;;;;;;5005810;28;20038;-61
2023/11/30 06:26:29;;;;;;;8.77;5.65;;;3.00;85.80;;;;;;5004840;28;20322;-60
2023/11/30 06:28:55;;;;;;;8.88;5.93;;;3.00;84.90;;;;;;5004331;28;20037;-62
2023/11/30 06:31:20;;;;;;;8.88;5.45;;;3.00;84.90;;;;;;5005204;28;20030;-62
2023/11/30 06:33:46;;;;;;;6.20;4.78;;;3.00;84.80;;;;;;5005821;28;20026;-62
2023/11/30 06:36:11;;;;;;;5.65;4.22;;;3.00;84.80;;;;;;5005715;28;20181;-61
2023/11/30 06:38:37;;;;;;;6.05;4.20;;;3.00;84.90;;;;;;5004806;28;20061;-59
2023/11/30 06:41:10;;;;;;;6.05;4.38;;;3.00;84.90;;;;;;5006443;28;20041;-62
2023/11/30 06:43:37;;;;;;;6.63;4.30;;;3.10;85.10;;;;;;5009390;28;20029;-62
2023/11/30 06:46:02;;;;;;;7.53;4.68;;;3.00;85.00;;;;;;5009812;28;20132;-62
2023/11/30 06:48:28;;;;;;;5.13;4.28;;;3.00;84.90;;;;;;5008768;28;20130;-61
2023/11/30 06:50:53;;;;;;;7.43;5.40;;;3.10;85.10;;;;;;5009589;28;20054;-62
2023/11/30 06:53:19;;;;;;;5.78;4.68;;;3.10;85.10;;;;;;5009372;28;20057;-62
2023/11/30 06:55:44;;;;;;;6.40;4.18;;;3.10;85.90;;;;;;5009708;28;20444;-61
2023/11/30 06:58:10;;;;;;;5.60;3.50;;;3.10;85.10;;;;;;5009063;28;20301;-60
2023/11/30 07:00:35;;;;;;;5.45;3.80;;;3.10;85.10;;;;;;5008608;28;20026;-62
2023/11/30 07:03:01;;;;;;;6.10;3.72;;;3.10;85.10;;;;;;5009533;28;20517;-60
2023/11/30 07:05:27;;;;;;;6.00;4.00;;;3.10;85.10;;;;;;5008672;28;20042;-62
2023/11/30 07:07:52;;;;;;;5.85;3.88;;;3.10;85.10;;;;;;5009540;28;20062;-63
2023/11/30 07:10:18;;;;;;;7.78;4.72;;;3.10;85.10;;;;;;5008218;28;20072;-61
2023/11/30 07:12:45;;;;;;;10.90;6.38;;;3.20;85.10;;;;;;5007392;28;20072;-62
2023/11/30 07:15:11;;;;;;;12.73;7.82;;;3.20;85.10;;;;;;5009264;28;20434;-61
2023/11/30 07:17:36;;;;;;;9.30;6.25;;;3.20;85.10;;;;;;5008772;28;20095;-61
2023/11/30 07:20:02;;;;;;;10.43;6.05;;;3.10;85.10;;;;;;5009332;28;20134;-62
2023/11/30 07:22:28;;;;;;;6.63;4.43;;;3.20;85.30;;;;;;5008258;28;20374;-62
2023/11/30 07:24:54;;;;;;;7.82;5.18;;;3.20;85.20;;;;;;5009247;28;20076;-61
2023/11/30 07:27:20;;;;;;;14.35;7.30;;;3.20;85.30;;;;;;5007560;28;20038;-62
2023/11/30 07:29:46;;;;;;;10.50;5.88;;;3.20;85.10;;;;;;5007905;28;20579;-62
2023/11/30 07:32:15;;;;;;;11.35;6.10;;;3.20;84.90;;;;;;5009074;28;20038;-61
2023/11/30 07:34:40;;;;;;;11.23;5.82;;;3.20;84.90;;;;;;5007995;28;20034;-62
2023/11/30 07:37:06;;;;;;;10.27;5.43;;;3.10;84.90;;;;;;5009081;28;20041;-61
2023/11/30 07:39:31;;;;;;;10.70;5.40;;;3.10;85.10;;;;;;5008300;28;20045;-62
2023/11/30 07:41:57;;;;;;;13.90;5.60;;;3.10;85.20;;;;;;5008278;28;20087;-62
2023/11/30 07:44:23;;;;;;;9.13;5.20;;;3.10;85.30;;;;;;5008121;28;20042;-61
2023/11/30 07:46:49;;;;;;;10.55;5.78;;;3.10;85.30;;;;;;5007815;28;20034;-61
2023/11/30 07:49:15;;;;;;;12.25;6.25;;;3.00;85.40;;;;;;5007456;28;20030;-62
2023/11/30 07:51:40;;;;;;;13.80;5.72;;;3.00;85.60;;;;;;5007968;28;20173;-62
2023/11/30 07:54:06;;;;;;;10.18;5.85;;;3.00;85.60;;;;;;5007305;28;20029;-60
2023/11/30 07:56:31;;;;;;;11.15;6.93;;;3.00;85.60;;;;;;5006410;28;20177;-62
2023/11/30 07:58:57;;;;;;;11.65;6.28;;;3.00;85.80;;;;;;5007794;28;20049;-61
2023/11/30 08:01:22;;;;;;;11.13;6.30;;;2.90;85.90;;;;;;5008200;28;20105;-62
2023/11/30 08:03:48;;;;;;;9.02;6.28;;;3.00;86.10;;;;;;5007855;28;20026;-61
2023/11/30 08:06:14;;;;;;;10.43;6.28;;;2.90;86.10;;;;;;5007288;28;20545;-62
2023/11/30 08:08:39;;;;;;;11.77;6.80;;;3.00;86.30;;;;;;5006794;28;20034;-59
2023/11/30 08:11:06;;;;;;;9.18;6.55;;;3.00;86.30;;;;;;5006747;28;20042;-61
2023/11/30 08:13:33;;;;;;;11.43;7.32;;;2.90;86.40;;;;;;5007862;28;20172;-62
2023/11/30 08:16:00;;;;;;;13.45;7.82;;;2.90;86.50;;;;;;5008437;28;20125;-61
2023/11/30 08:18:26;;;;;;;19.77;10.63;;;3.00;86.60;;;;;;5006869;28;20026;-61
2023/11/30 08:20:54;;;;;;;18.58;9.93;;;3.00;86.60;;;;;;5008134;28;20441;-61
2023/11/30 08:23:20;;;;;;;16.35;8.27;;;3.00;86.70;;;;;;5007676;28;20034;-61
2023/11/30 08:25:46;;;;;;;11.55;7.10;;;3.00;86.70;;;;;;5007565;28;20044;-62
2023/11/30 08:28:13;;;;;;;9.40;6.63;;;3.00;86.80;;;;;;5006080;28;20045;-59
2023/11/30 08:30:41;;;;;;;8.95;5.70;;;3.00;86.80;;;;;;5006862;28;20041;-62
2023/11/30 08:33:06;;;;;;;7.32;5.40;;;3.10;86.90;;;;;;5007962;28;20121;-60
2023/11/30 08:35:32;;;;;;;7.32;4.88;;;3.10;86.90;;;;;;5007452;28;20544;-61
2023/11/30 08:37:58;;;;;;;8.30;5.22;;;3.10;86.90;;;;;;5007378;28;20101;-62
2023/11/30 08:40:24;;;;;;;6.65;4.75;;;3.20;87.00;;;;;;5007046;28;20045;-61
2023/11/30 08:42:49;;;;;;;7.30;4.70;;;3.20;87.00;;;;;;5007586;28;20040;-61
2023/11/30 08:45:15;;;;;;;8.18;4.65;;;3.20;87.80;;;;;;5006902;28;20038;-62
2023/11/30 08:47:43;;;;;;;5.53;4.28;;;3.20;86.90;;;;;;5006804;28;20033;-61
2023/11/30 08:50:09;;;;;;;6.53;3.90;;;3.20;87.00;;;;;;5006725;28;20713;-62
2023/11/30 08:52:34;;;;;;;4.88;4.13;;;3.30;86.80;;;;;;5006289;28;20092;-61
2023/11/30 08:55:00;;;;;;;4.63;3.63;;;3.30;86.80;;;;;;5006203;28;20147;-62
2023/11/30 08:57:26;;;;;;;6.70;3.97;;;3.30;86.70;;;;;;5006816;28;20203;-60
2023/11/30 08:59:51;;;;;;;5.45;3.88;;;3.30;87.50;;;;;;5006616;28;20026;-60
2023/11/30 09:02:19;;;;;;;6.57;3.80;;;3.30;86.60;;;;;;5005259;28;20155;-59
2023/11/30 09:04:45;;;;;;;5.88;4.30;;;3.30;86.60;;;;;;5007509;28;20045;-61
2023/11/30 09:07:11;;;;;;;5.35;3.92;;;3.30;86.60;;;;;;5008319;28;20030;-59
2023/11/30 09:09:36;;;;;;;5.30;4.13;;;3.30;86.70;;;;;;5007857;28;20095;-61
2023/11/30 09:12:02;;;;;;;6.60;4.40;;;3.30;86.70;;;;;;5007412;28;20037;-61
2023/11/30 09:14:30;;;;;;;5.93;4.07;;;3.30;86.60;;;;;;4999563;28;20034;-61
2023/11/30 09:16:55;;;;;;;5.35;3.85;;;3.30;86.70;;;;;;5007944;28;20045;-59
2023/11/30 09:19:21;;;;;;;4.63;4.10;;;3.40;86.80;;;;;;5008058;28;20048;-61
2023/11/30 09:21:46;;;;;;;5.95;3.88;;;3.30;86.90;;;;;;5008245;28;20030;-59
2023/11/30 09:24:12;;;;;;;5.80;4.05;;;3.30;87.00;;;;;;5008271;28;20037;-61
2023/11/30 09:26:38;;;;;;;6.30;3.97;;;3.40;87.10;;;;;;5007674;28;20180;-62
2023/11/30 09:29:03;;;;;;;3.55;3.13;;;3.40;87.20;;;;;;5007150;28;20041;-61
2023/11/30 09:31:30;;;;;;;3.90;3.50;;;3.40;87.30;;;;;;5007963;28;20042;-61
2023/11/30 09:33:55;;;;;;;3.97;3.10;;;3.40;87.30;;;;;;5008162;28;20037;-62
2023/11/30 09:36:22;;;;;;;3.40;2.92;;;3.40;87.30;;;;;;5007990;28;20045;-61
2023/11/30 09:38:47;;;;;;;3.90;3.03;;;3.50;87.40;;;;;;5006257;28;20663;-62
2023/11/30 09:41:16;;;;;;;4.10;3.33;;;3.50;87.30;;;;;;5008094;28;20038;-62
2023/11/30 09:43:44;;;;;;;3.05;2.75;;;3.50;87.30;;;;;;5007595;28;20485;-62
2023/11/30 09:46:09;;;;;;;3.72;3.00;;;3.50;87.20;;;;;;5007937;28;20056;-62
2023/11/30 09:48:35;;;;;;;4.55;3.28;;;3.60;87.20;;;;;;5007095;28;20029;-62
2023/11/30 09:51:02;;;;;;;5.10;3.33;;;3.60;87.20;;;;;;5007731;28;20129;-61
2023/11/30 09:53:28;;;;;;;4.00;3.50;;;3.60;87.20;;;;;;5007385;28;20528;-61
2023/11/30 09:55:53;;;;;;;3.80;3.40;;;3.60;87.10;;;;;;5007463;28;20038;-61
2023/11/30 09:58:19;;;;;;;6.43;3.78;;;3.60;87.20;;;;;;5007220;28;20056;-61
2023/11/30 10:00:45;;;;;;;8.77;5.18;;;3.70;87.20;;;;;;5006801;28;20113;-61
2023/11/30 10:03:10;;;;;;;8.63;5.43;;;3.70;88.00;;;;;;5008028;28;20040;-61
2023/11/30 10:05:36;;;;;;;9.10;5.90;;;3.70;87.10;;;;;;5007604;28;20056;-62
2023/11/30 10:08:02;;;;;;;8.13;5.65;;;3.80;87.10;;;;;;5007063;28;20040;-61
2023/11/30 10:10:28;;;;;;;9.18;5.90;;;3.80;86.80;;;;;;5005406;28;20049;-63
2023/11/30 10:12:53;;;;;;;9.15;6.63;;;3.80;86.90;;;;;;5007132;28;20034;-59
2023/11/30 10:15:22;;;;;;;8.15;6.28;;;3.80;87.00;;;;;;5006883;28;20037;-61
2023/11/30 10:17:48;;;;;;;7.95;5.65;;;3.80;87.00;;;;;;5006983;28;20310;-60
2023/11/30 10:20:14;;;;;;;7.38;5.78;;;3.80;86.80;;;;;;5007082;28;20030;-60
2023/11/30 10:22:40;;;;;;;8.02;6.07;;;3.80;86.60;;;;;;5006569;28;20670;-61
2023/11/30 10:25:09;;;;;;;14.55;7.82;;;3.80;86.60;;;;;;5007748;28;20065;-62
2023/11/30 10:27:36;;;;;;;9.40;6.70;;;3.70;86.80;;;;;;5005574;28;20113;-61
2023/11/30 10:30:04;;;;;;;9.75;6.68;;;3.70;86.70;;;;;;5007136;28;20520;-60
2023/11/30 10:32:32;;;;;;;8.65;6.22;;;3.70;86.70;;;;;;5006359;28;20256;-60
2023/11/30 10:35:02;;;;;;;11.93;6.97;;;3.70;86.80;;;;;;5007066;28;20421;-59
2023/11/30 10:37:32;;;;;;;11.25;7.65;;;3.70;86.90;;;;;;5007168;28;20033;-61
2023/11/30 10:40:07;;;;;;;10.35;6.88;;;3.70;86.90;;;;;;5007303;28;20081;-60
2023/11/30 10:42:34;;;;;;;10.60;6.65;;;3.70;86.90;;;;;;5006343;28;20045;-60
2023/11/30 10:45:06;;;;;;;8.30;5.90;;;3.70;87.00;;;;;;5007151;28;20034;-59
2023/11/30 10:47:32;;;;;;;7.93;5.95;;;3.70;87.10;;;;;;5006211;28;20030;-60
2023/11/30 10:49:59;;;;;;;8.52;6.72;;;3.70;87.20;;;;;;5007446;28;20034;-60
2023/11/30 10:52:27;;;;;;;11.45;6.80;;;3.70;87.10;;;;;;5006702;28;20065;-60
2023/11/30 10:55:08;;;;;;;9.93;6.18;;;3.70;86.90;;;;;;5007138;28;20057;-60
2023/11/30 10:57:33;;;;;;;8.43;6.28;;;3.70;87.20;;;;;;5006752;28;20092;-61
2023/11/30 10:59:59;;;;;;;7.00;5.65;;;3.70;87.20;;;;;;5006305;28;20030;-61
2023/11/30 11:02:36;;;;;;;9.07;5.82;;;3.70;88.10;;;;;;5006531;28;20502;-60
2023/11/30 11:05:06;;;;;;;8.07;5.72;;;3.70;87.40;;;;;;5006885;28;20034;-60
2023/11/30 11:07:31;;;;;;;7.35;5.43;;;3.70;87.50;;;;;;5006464;28;20034;-60
2023/11/30 11:10:01;;;;;;;8.00;5.40;;;3.80;87.50;;;;;;5006161;28;20072;-59
2023/11/30 11:12:37;;;;;;;8.48;6.00;;;3.80;87.50;;;;;;5003836;28;20080;-61
2023/11/30 11:15:11;;;;;;;8.48;5.88;;;3.80;87.50;;;;;;5006737;28;20060;-60
2023/11/30 11:17:48;;;;;;;10.15;6.40;;;3.80;87.50;;;;;;5006575;28;20577;-59
2023/11/30 11:20:22;;;;;;;11.57;7.90;;;3.80;87.50;;;;;;5006632;28;20027;-62
2023/11/30 11:22:48;;;;;;;8.77;6.70;;;3.80;87.50;;;;;;5006316;28;20034;-60
2023/11/30 11:25:16;;;;;;;10.85;7.57;;;3.80;87.30;;;;;;5006757;28;20042;-58
2023/11/30 11:27:42;;;;;;;11.40;8.13;;;3.80;87.30;;;;;;5007182;28;20034;-59
2023/11/30 11:30:08;;;;;;;8.40;6.25;;;3.80;87.40;;;;;;5010267;28;20034;-59
2023/11/30 11:32:35;;;;;;;8.48;6.22;;;3.80;87.50;;;;;;5009482;28;20046;-59
2023/11/30 11:35:05;;;;;;;7.80;6.18;;;3.80;87.60;;;;;;5009974;28;20069;-59
2023/11/30 11:37:31;;;;;;;7.68;6.05;;;3.90;87.70;;;;;;5009332;28;20049;-59
2023/11/30 11:39:56;;;;;;;10.15;7.03;;;3.90;87.80;;;;;;5010133;28;20478;-60
2023/11/30 11:42:22;;;;;;;10.95;7.90;;;3.90;87.90;;;;;;5010001;28;20033;-60
2023/11/30 11:44:50;;;;;;;16.60;9.52;;;4.00;87.90;;;;;;5009770;28;20030;-61
2023/11/30 11:47:16;;;;;;;19.60;10.18;;;4.00;87.90;;;;;;5009314;28;20037;-62
2023/11/30 11:49:42;;;;;;;16.38;9.88;;;4.10;87.90;;;;;;5009994;28;20045;-61
2023/11/30 11:52:08;;;;;;;16.38;9.98;;;4.10;87.80;;;;;;5009768;28;20038;-62
2023/11/30 11:54:35;;;;;;;16.75;10.32;;;4.10;87.90;;;;;;5008850;28;20034;-61
2023/11/30 11:57:01;;;;;;;17.40;9.80;;;4.10;87.90;;;;;;5010026;28;20070;-62
2023/11/30 11:59:29;;;;;;;16.92;8.95;;;4.20;87.90;;;;;;5009119;28;20073;-61
2023/11/30 12:01:57;;;;;;;16.13;9.48;;;4.20;87.70;;;;;;5009977;28;20436;-60
2023/11/30 12:04:30;;;;;;;12.57;9.10;;;4.20;88.40;;;;;;5009222;28;20034;-62
2023/11/30 12:06:57;;;;;;;13.10;9.77;;;4.30;87.70;;;;;;5008970;28;20042;-60
2023/11/30 12:09:23;;;;;;;9.48;7.55;;;4.30;87.70;;;;;;5008850;28;20038;-62
2023/11/30 12:11:50;;;;;;;11.50;7.13;;;4.40;87.70;;;;;;5007222;28;20034;-60
2023/11/30 12:14:15;;;;;;;7.70;5.88;;;4.40;87.60;;;;;;5009415;28;20052;-62
2023/11/30 12:16:42;;;;;;;8.05;5.82;;;4.40;87.50;;;;;;5009184;28;20106;-62
2023/11/30 12:19:08;;;;;;;6.35;5.05;;;4.40;87.40;;;;;;5009070;28;20049;-61
2023/11/30 12:21:35;;;;;;;6.10;5.20;;;4.40;87.30;;;;;;5009204;28;20125;-62
2023/11/30 12:24:01;;;;;;;7.72;5.13;;;4.50;87.30;;;;;;5009064;28;20452;-63
2023/11/30 12:26:27;;;;;;;7.82;6.32;;;4.50;87.30;;;;;;5008575;28;20030;-62
2023/11/30 12:28:54;;;;;;;9.35;7.47;;;4.50;87.00;;;;;;5007766;28;20034;-62
2023/11/30 12:31:21;;;;;;;15.00;8.88;;;4.50;86.80;;;;;;5009087;28;20073;-62
2023/11/30 12:33:46;;;;;;;13.00;9.13;;;4.40;86.60;;;;;;5008959;28;20176;-63
2023/11/30 12:36:12;;;;;;;12.88;9.82;;;4.40;86.50;;;;;;5009413;28;20037;-63
2023/11/30 12:38:37;;;;;;;18.55;10.30;;;4.40;86.50;;;;;;5007732;28;20044;-62
2023/11/30 12:41:03;;;;;;;13.73;9.23;;;4.30;86.50;;;;;;5009104;28;20026;-62
2023/11/30 12:43:29;;;;;;;12.63;8.70;;;4.30;86.60;;;;;;5009262;28;20493;-61
2023/11/30 12:45:54;;;;;;;14.05;9.30;;;4.10;86.70;;;;;;5008806;28;20029;-62